Amesville, Ohio
Current Conditions -  °F | °C
As of 6:15 AM on Monday 22 Dec 2014 (Local Time) from KUNI Reporting Station
Overcast Overcast  
Wind Chill: -2°   Ceiling: 5000
Heat Index: -2°   Visibility: 7mi
Dew Point: -3°   Wind: 0mph
Humidity: 90%   Direction: NA
Pressure: 30.07"   Gusts: NA
Location:  39.4°N, 81.96°W
Report Text: KUNI 221115Z AUTO 00000KT 7SM OVC050 M02/M03 A3007 RMK AO2 T10181032
Loading
Personal Weather Stations






























Interactive Weather Map New forecast layout! Learn more

10-Day Weather Forecast

Advertisements
Track Severe Weather on mobile